Sedona, AZ

4:50 PM MST on September 02, 2014 (GMT -0700)
Northview | Change Station
CLOSE
Current Station
Personal Weather Station
Location: Sedona, AZ
Elevation: 4396 ft
Nearby Weather Stations

Elev 4396 ft 34.86 °N, 111.79 °W | Updated 1 second ago

Clear
Clear
92.3 °F
Feels Like 88 °F
N
3.8
Wind Variable Wind from South
Gusts 8.3 mph

Today
High -- | Low -- °F
--% Chance of Precip.
Yesterday
High -- | Low -- °F
Precip. -- in
6:00 AM 6:52 PM
First Quarter, 56% visible
Pressure 30.02 in
Visibility 10.0 miles
Clouds Clear
Heat Index 88 °F
Dew Point 38 °F
Humidity 15%
Rainfall 0.00 in
Snow Depth Not available.
UV 3 out of 12
Pollen 6.90 out of 12
Air Quality Not available.
Flu Activity Not available.
METAR KSEZ 022335Z AUTO 16006KT 10SM CLR 32/01 A3002 RMK AO2

More Conditions Fewer Conditions

Pressure 30.02 in
Visibility 10.0 miles
Clouds Clear
Heat Index 88 °F
Dew Point 38 °F
Humidity 15%
Rainfall 0.00 in
Snow Depth Not available.
UV 3 out of 12
Pollen 6.90 out of 12
Air Quality Not available.
Flu Activity Not available.
METAR KSEZ 022335Z AUTO 16006KT 10SM CLR 32/01 A3002 RMK AO2

More Conditions Fewer Conditions

10-Day Weather Forecast

Almanac

Astronomy

Sep. 02, 2014 Rise Set
Actual Time 6:00 AM MST 6:52 PM MST
Civil Twilight 5:34 AM MST 7:17 PM MST
Nautical Twilight 5:04 AM MST 7:48 PM MST
Astronomical Twilight 4:33 AM MST 8:19 PM MST
Moon 1:31 PM MST No Moon Set
Length of Visible Light 13h 42m
Length of Day
12h 51m
Tomorrow will be 2m 6s shorter.
First Quarter, 56% of the Moon is Illuminated
Today
First Quarter
Sep 8
Full
Sep 15
Last Quarter
Sep 24
New
Oct 1
First Quarter

Today's Extremes

State Highs State Lows

Community

WunderPhotos

Upload Photos

1,749,799 photos uploaded!

Nearby

Snow Depth

Station Depth Elevation
Snowslide Canyon 0 in 9730 ft
Workman Creek 0 in 6900 ft
Coronado Trail 8 in 8400 ft
Beaver Head 27 in 7990 ft

Earthquake Activity

City Distance Mag. Time & Date
No recent earthquake activity has been reported nearby.
Minimum magnitude displayed is 2.5.

Coastal Water Temperatures

Place Temperature
No Stations Reporting

Nearby Weather Stations